Swanson Ranch 3, NV

3:18 PM PDT on October 25, 2014 (GMT -0700)
RAWS RED BUTTE NV US | Change Station
CLOSE
Current Station
Personal Weather Station
Location: Austin, NV
Elevation: 5025 ft
Nearby Weather Stations
Active Advisory: Wind Advisory Active Notice: Record Report, Public Information Statement

Elev 5025 ft 39.99 °N, 117.32 °W | Updated 39 minutes ago

Partly Cloudy
Partly Cloudy
74 °F
Feels Like 74 °F
N
26
Wind Variable Wind from SW
Gusts 37.0 mph

Today
High -- | Low -- °F
--% Chance of Precip.
Yesterday
High -- | Low -- °F
Precip. -- in
7:10 AM 5:55 PM
Waxing Crescent, 4% visible
Pressure 29.75 in
Visibility -9999.0 miles
Clouds
Heat Index 74 °F
Dew Point 16 °F
Humidity 11%
Rainfall 0.00 in
Snow Depth Not available.
UV Not available.
Pollen 3.30 out of 12
Air Quality Not available.
Flu Activity No Activity
METAR KP68 252153Z AUTO 19018G29KT 21/M03 A2996 RMK AO1 PK WND 17035/2123 SLP073 T02111033

More Conditions Fewer Conditions

Pressure 29.75 in
Visibility -9999.0 miles
Clouds
Heat Index 74 °F
Dew Point 16 °F
Humidity 11%
Rainfall 0.00 in
Snow Depth Not available.
UV Not available.
Pollen 3.30 out of 12
Air Quality Not available.
Flu Activity No Activity
METAR KP68 252153Z AUTO 19018G29KT 21/M03 A2996 RMK AO1 PK WND 17035/2123 SLP073 T02111033

More Conditions Fewer Conditions

10-Day Weather Forecast

Almanac

Astronomy

Oct. 25, 2014 Rise Set
Actual Time 7:10 AM PDT 5:55 PM PDT
Civil Twilight 6:43 AM PDT 6:23 PM PDT
Nautical Twilight 6:11 AM PDT 6:55 PM PDT
Astronomical Twilight 5:40 AM PDT 7:26 PM PDT
Moon 8:54 AM PDT 7:22 PM PDT
Length of Visible Light 11h 40m
Length of Day
10h 44m
Tomorrow will be 2m 26s shorter.
Waxing Crescent, 4% of the Moon is Illuminated
Today
Waxing Crescent
Oct 30
First Quarter
Nov 6
Full
Nov 14
Last Quarter
Nov 22
New

Today's Extremes

State Highs State Lows

Community

WunderPhotos

Upload Photos

1,765,015 photos uploaded!

Nearby

Snow Depth

Station Depth Elevation
Big Creek Summit 0 in 8700 ft
Diamond Peak 0 in 8000 ft
Lamance Creek 1 in 6000 ft
Taylor Canyon 1 in 6200 ft
Granite Peak 0 in 7800 ft

Earthquake Activity

City Distance Mag. Time & Date
No recent earthquake activity has been reported nearby.
Minimum magnitude displayed is 2.5.

Coastal Water Temperatures

Place Temperature
No Stations Reporting

Nearby Weather Stations